Flight Track Log - Related Links

Times and Time Zones

All times are in EDT time to prevent confusion due to time zone crossing. See the AAL1811 flight status page for this flight to view local times or setup timezone preferences in your user account.


Time Position Orientation Groundspeed Altitude Reporting Facility
EDT Latitude Longitude Course Direction KTS MPH feet Rate Location/Type
Sat 03:37:00 PM 30.3871 -97.5310 329° Northwest  Level FlightAware Approximate
Sat 03:37:13 PM 30.1428 -97.7636 327° Northwest 240 276 5,800  Level Houston Center
Sat 03:38:00 PM 30.4582 -97.5807 329° Northwest  Level FlightAware Approximate
Sat 03:38:14 PM 30.2069 -97.7994 334° Northwest 252 290 8,600  Level Houston Center
Sat 03:39:00 PM 30.5293 -97.6305 329° Northwest  Level FlightAware Approximate
Sat 03:39:16 PM 30.2844 -97.8092 354° North 271 312 10,900  Level Houston Center
Sat 03:40:00 PM 30.5959 -97.6881 323° Northwest  Level FlightAware Approximate
Sat 03:40:18 PM 30.3692 -97.8419 342° North 312 359 12,700  Level Houston Center
Sat 03:41:00 PM 30.6666 -97.7500 323° Northwest  Level FlightAware Approximate
Sat 03:41:19 PM 30.4681 -97.8772 343° North 359 413 14,900  Level Houston Center
Sat 03:42:00 PM 30.7419 -97.8027 327° Northwest  Level FlightAware Approximate
Sat 03:42:21 PM 30.5722 -97.9147 343° North 381 438 17,400  Level Houston Center
Sat 03:43:23 PM 30.6800 -97.9556 342° North 396 456 19,700 2,098 Climbing Houston Center
Sat 03:44:24 PM 30.7908 -97.9964 342° North 409 471 21,700 1,610 Climbing Houston Center
Sat 03:45:26 PM 30.9047 -98.0392 342° North 420 483 23,000 629 Climbing Houston Center
Sat 03:46:28 PM 31.0200 -98.0817 342° North 426 490 23,000  Level Houston Center
Sat 03:47:25 PM 31.1339 -98.1244 342° North 440 506 23,000  Level Fort Worth Center
Sat 03:48:24 PM 31.2553 -98.0864 15° North 403 464 23,000  Level Fort Worth Center
Sat 03:49:24 PM 31.3642 -98.0289 24° Northeast 411 473 23,000  Level Fort Worth Center
Sat 03:50:24 PM 31.4731 -97.9808 21° North 421 484 23,000  Level Fort Worth Center
Sat 03:51:24 PM 31.5839 -97.9281 22° Northeast 421 484 23,000  Level Fort Worth Center
Sat 03:52:24 PM 31.6967 -97.8869 17° North 415 478 23,000  Level Fort Worth Center
Sat 03:53:24 PM 31.8094 -97.8583 12° North 410 472 23,000 -950 Level Fort Worth Center
Sat 03:54:24 PM 31.9225 -97.8197 16° North 415 478 21,100 -2,100 Descending Fort Worth Center
Sat 03:55:24 PM 32.0228 -97.7883 15° North 415 478 18,800 -2,350 Descending Fort Worth Center
Sat 03:56:24 PM 32.1336 -97.7397 20° North 391 450 16,400 -2,050 Descending Fort Worth Center
Sat 03:57:24 PM 32.2233 -97.7131 14° North 369 425 14,700 -1,900 Descending Fort Worth Center
Sat 03:58:24 PM 32.3278 -97.6986 North 347 399 12,600 -1,800 Descending Fort Worth Center
Sat 03:59:24 PM 32.4053 -97.6544 26° Northeast 336 387 11,100 -800 Descending Fort Worth Center
Sat 04:00:24 PM 32.4761 -97.5858 39° Northeast 313 360 11,000 -50 Descending Fort Worth Center
Sat 04:01:24 PM 32.5389 -97.5392 32° Northeast 301 346 11,000  Level Fort Worth Center
Sat 04:02:24 PM 32.6225 -97.4972 23° Northeast 291 335 11,000  Level Fort Worth Center
Sat 04:03:24 PM 32.6872 -97.4553 29° Northeast 286 329 11,000  Level Fort Worth Center
Sat 04:04:24 PM 32.7686 -97.4086 26° Northeast 286 329 11,000 -550 Level Fort Worth Center
Sat 04:05:24 PM 32.8375 -97.3764 21° North 286 329 9,900 -1,400 Descending Fort Worth Center
Sat 04:06:24 PM 32.9147 -97.3367 23° Northeast 286 329 8,200 -1,900 Descending Fort Worth Center
Sat 04:07:24 PM 32.9731 -97.2922 33° Northeast 267 307 6,100 -1,150 Descending Fort Worth Center
Sat 04:08:24 PM 33.0189 -97.2228 52° Northeast 248 285 5,900 -500 Descending Fort Worth Center
Sat 04:09:24 PM 33.0356 -97.1558 73° East 232 267 5,100 -800 Descending Fort Worth Center

Login

Don't have an account? Register now (free) for customized features, flight alerts, and more!